sensor_id;sensor_type;location;lat;lon;timestamp;temperature;humidity
7784;DHT22;19359;51.402;6.778;2023-08-30T00:01:33;14.40;36.30
7784;DHT22;19359;51.402;6.778;2023-08-30T00:04:00;14.10;38.10
7784;DHT22;19359;51.402;6.778;2023-08-30T00:06:26;14.10;22.20
7784;DHT22;19359;51.402;6.778;2023-08-30T00:08:53;14.10;33.10
7784;DHT22;19359;51.402;6.778;2023-08-30T00:11:22;14.10;32.30
7784;DHT22;19359;51.402;6.778;2023-08-30T00:13:50;14.10;37.30
7784;DHT22;19359;51.402;6.778;2023-08-30T00:16:16;14.10;42.80
7784;DHT22;19359;51.402;6.778;2023-08-30T00:18:43;14.10;27.10
7784;DHT22;19359;51.402;6.778;2023-08-30T00:21:10;13.80;46.60
7784;DHT22;19359;51.402;6.778;2023-08-30T00:23:37;13.90;51.40
7784;DHT22;19359;51.402;6.778;2023-08-30T00:26:04;13.90;36.20
7784;DHT22;19359;51.402;6.778;2023-08-30T00:28:31;13.90;60.30
7784;DHT22;19359;51.402;6.778;2023-08-30T00:30:59;14.00;70.80
7784;DHT22;19359;51.402;6.778;2023-08-30T00:33:26;13.70;59.00
7784;DHT22;19359;51.402;6.778;2023-08-30T00:38:23;13.70;40.40
7784;DHT22;19359;51.402;6.778;2023-08-30T00:40:50;13.60;57.60
7784;DHT22;19359;51.402;6.778;2023-08-30T00:43:17;13.60;52.80
7784;DHT22;19359;51.402;6.778;2023-08-30T00:45:44;13.60;41.80
7784;DHT22;19359;51.402;6.778;2023-08-30T00:48:13;13.60;35.50
7784;DHT22;19359;51.402;6.778;2023-08-30T00:50:41;13.50;34.40
7784;DHT22;19359;51.402;6.778;2023-08-30T00:53:09;13.60;61.90
7784;DHT22;19359;51.402;6.778;2023-08-30T00:55:37;13.50;55.00
7784;DHT22;19359;51.402;6.778;2023-08-30T00:58:05;13.40;55.30
7784;DHT22;19359;51.402;6.778;2023-08-30T01:00:33;13.30;58.50
7784;DHT22;19359;51.402;6.778;2023-08-30T01:03:00;13.20;71.20
7784;DHT22;19359;51.402;6.778;2023-08-30T01:05:28;13.30;46.10
7784;DHT22;19359;51.402;6.778;2023-08-30T01:07:55;13.20;67.00
7784;DHT22;19359;51.402;6.778;2023-08-30T01:10:26;13.30;59.30
7784;DHT22;19359;51.402;6.778;2023-08-30T01:12:59;13.30;53.50
7784;DHT22;19359;51.402;6.778;2023-08-30T01:15:27;13.40;54.30
7784;DHT22;19359;51.402;6.778;2023-08-30T01:17:55;13.30;58.30
7784;DHT22;19359;51.402;6.778;2023-08-30T01:20:23;13.30;38.90
7784;DHT22;19359;51.402;6.778;2023-08-30T01:22:59;13.30;65.00
7784;DHT22;19359;51.402;6.778;2023-08-30T01:25:42;13.20;50.60
7784;DHT22;19359;51.402;6.778;2023-08-30T01:28:12;13.20;54.40
7784;DHT22;19359;51.402;6.778;2023-08-30T01:30:42;13.20;62.80
7784;DHT22;19359;51.402;6.778;2023-08-30T01:33:09;13.00;93.00
7784;DHT22;19359;51.402;6.778;2023-08-30T01:35:36;13.10;94.00
7784;DHT22;19359;51.402;6.778;2023-08-30T01:38:07;13.20;92.80
7784;DHT22;19359;51.402;6.778;2023-08-30T01:40:36;13.30;1.00
7784;DHT22;19359;51.402;6.778;2023-08-30T01:43:04;13.20;89.40
7784;DHT22;19359;51.402;6.778;2023-08-30T01:45:35;13.20;67.90
7784;DHT22;19359;51.402;6.778;2023-08-30T01:48:03;13.30;1.00
7784;DHT22;19359;51.402;6.778;2023-08-30T01:50:31;13.40;1.00
7784;DHT22;19359;51.402;6.778;2023-08-30T01:52:59;13.50;1.00
7784;DHT22;19359;51.402;6.778;2023-08-30T01:55:28;13.40;1.00
7784;DHT22;19359;51.402;6.778;2023-08-30T01:57:56;13.40;33.60
7784;DHT22;19359;51.402;6.778;2023-08-30T02:00:23;13.40;87.30
7784;DHT22;19359;51.402;6.778;2023-08-30T02:02:51;13.50;15.30
7784;DHT22;19359;51.402;6.778;2023-08-30T02:05:17;13.50;99.90
7784;DHT22;19359;51.402;6.778;2023-08-30T02:07:49;13.40;99.90
7784;DHT22;19359;51.402;6.778;2023-08-30T02:10:22;13.40;99.90
7784;DHT22;19359;51.402;6.778;2023-08-30T02:15:18;13.20;99.90
7784;DHT22;19359;51.402;6.778;2023-08-30T02:17:45;13.30;35.40
7784;DHT22;19359;51.402;6.778;2023-08-30T02:20:14;13.30;39.40
7784;DHT22;19359;51.402;6.778;2023-08-30T02:22:41;13.30;46.70
7784;DHT22;19359;51.402;6.778;2023-08-30T02:25:08;13.10;65.90
7784;DHT22;19359;51.402;6.778;2023-08-30T02:27:35;13.20;44.90
7784;DHT22;19359;51.402;6.778;2023-08-30T02:30:03;13.20;57.40
7784;DHT22;19359;51.402;6.778;2023-08-30T02:32:30;13.20;40.60
7784;DHT22;19359;51.402;6.778;2023-08-30T02:34:57;13.20;73.80
7784;DHT22;19359;51.402;6.778;2023-08-30T02:37:25;12.90;73.60
7784;DHT22;19359;51.402;6.778;2023-08-30T02:39:52;13.10;80.70
7784;DHT22;19359;51.402;6.778;2023-08-30T02:42:19;13.00;73.60
7784;DHT22;19359;51.402;6.778;2023-08-30T02:47:12;12.90;48.20
7784;DHT22;19359;51.402;6.778;2023-08-30T02:49:39;12.70;1.00
7784;DHT22;19359;51.402;6.778;2023-08-30T02:52:06;13.00;1.00
7784;DHT22;19359;51.402;6.778;2023-08-30T02:54:34;12.80;1.00
7784;DHT22;19359;51.402;6.778;2023-08-30T02:57:01;13.00;1.00
7784;DHT22;19359;51.402;6.778;2023-08-30T02:59:28;12.90;1.00
7784;DHT22;19359;51.402;6.778;2023-08-30T03:01:54;12.90;29.20
7784;DHT22;19359;51.402;6.778;2023-08-30T03:04:21;12.90;59.10
7784;DHT22;19359;51.402;6.778;2023-08-30T03:06:48;12.90;35.60
7784;DHT22;19359;51.402;6.778;2023-08-30T03:09:15;12.80;99.90
7784;DHT22;19359;51.402;6.778;2023-08-30T03:11:43;12.70;96.30
7784;DHT22;19359;51.402;6.778;2023-08-30T03:14:10;12.70;97.60
7784;DHT22;19359;51.402;6.778;2023-08-30T03:16:36;12.70;99.90
7784;DHT22;19359;51.402;6.778;2023-08-30T03:19:03;12.50;99.50
7784;DHT22;19359;51.402;6.778;2023-08-30T03:21:30;12.70;95.90
7784;DHT22;19359;51.402;6.778;2023-08-30T03:23:57;12.70;99.90
7784;DHT22;19359;51.402;6.778;2023-08-30T03:26:23;12.70;99.90
7784;DHT22;19359;51.402;6.778;2023-08-30T03:28:51;12.60;96.20
7784;DHT22;19359;51.402;6.778;2023-08-30T03:31:20;12.30;99.90
7784;DHT22;19359;51.402;6.778;2023-08-30T03:33:47;12.60;99.90
7784;DHT22;19359;51.402;6.778;2023-08-30T03:36:16;12.60;99.90
7784;DHT22;19359;51.402;6.778;2023-08-30T03:38:44;12.50;99.90
7784;DHT22;19359;51.402;6.778;2023-08-30T03:41:11;12.50;99.90
7784;DHT22;19359;51.402;6.778;2023-08-30T03:43:38;12.60;99.90
7784;DHT22;19359;51.402;6.778;2023-08-30T03:46:06;12.60;99.90
7784;DHT22;19359;51.402;6.778;2023-08-30T03:48:34;12.60;99.90
7784;DHT22;19359;51.402;6.778;2023-08-30T03:51:01;12.60;99.90
7784;DHT22;19359;51.402;6.778;2023-08-30T03:55:55;12.50;99.90
7784;DHT22;19359;51.402;6.778;2023-08-30T03:58:23;12.50;99.90
7784;DHT22;19359;51.402;6.778;2023-08-30T04:00:50;12.30;99.90
7784;DHT22;19359;51.402;6.778;2023-08-30T04:03:18;12.40;92.50
7784;DHT22;19359;51.402;6.778;2023-08-30T04:05:44;12.50;99.90
7784;DHT22;19359;51.402;6.778;2023-08-30T04:08:11;12.40;94.50
7784;DHT22;19359;51.402;6.778;2023-08-30T04:10:39;12.40;92.00
7784;DHT22;19359;51.402;6.778;2023-08-30T04:15:34;12.30;92.20
7784;DHT22;19359;51.402;6.778;2023-08-30T04:18:01;12.30;99.90
7784;DHT22;19359;51.402;6.778;2023-08-30T04:20:29;12.20;90.20
7784;DHT22;19359;51.402;6.778;2023-08-30T04:22:56;12.30;99.90
7784;DHT22;19359;51.402;6.778;2023-08-30T04:27:51;12.20;94.40
7784;DHT22;19359;51.402;6.778;2023-08-30T04:30:18;12.20;91.90
7784;DHT22;19359;51.402;6.778;2023-08-30T04:32:44;12.10;90.60
7784;DHT22;19359;51.402;6.778;2023-08-30T04:35:11;12.10;99.90
7784;DHT22;19359;51.402;6.778;2023-08-30T04:37:39;12.20;99.90
7784;DHT22;19359;51.402;6.778;2023-08-30T04:40:08;12.10;99.90
7784;DHT22;19359;51.402;6.778;2023-08-30T04:42:36;12.10;99.90
7784;DHT22;19359;51.402;6.778;2023-08-30T04:45:03;12.10;99.90
7784;DHT22;19359;51.402;6.778;2023-08-30T04:47:31;12.10;99.60
7784;DHT22;19359;51.402;6.778;2023-08-30T04:49:58;12.10;99.90
7784;DHT22;19359;51.402;6.778;2023-08-30T04:52:25;12.10;99.90
7784;DHT22;19359;51.402;6.778;2023-08-30T04:54:53;12.20;99.90
7784;DHT22;19359;51.402;6.778;2023-08-30T04:57:20;12.20;99.90
7784;DHT22;19359;51.402;6.778;2023-08-30T04:59:48;12.40;99.90
7784;DHT22;19359;51.402;6.778;2023-08-30T05:02:15;12.50;99.90
7784;DHT22;19359;51.402;6.778;2023-08-30T05:04:42;12.50;99.90
7784;DHT22;19359;51.402;6.778;2023-08-30T05:09:36;12.60;99.90
7784;DHT22;19359;51.402;6.778;2023-08-30T05:12:04;12.60;99.90
7784;DHT22;19359;51.402;6.778;2023-08-30T05:14:31;12.70;99.90
7784;DHT22;19359;51.402;6.778;2023-08-30T05:16:58;12.70;99.90
7784;DHT22;19359;51.402;6.778;2023-08-30T05:19:25;13.10;99.90
7784;DHT22;19359;51.402;6.778;2023-08-30T05:21:51;13.00;99.90
7784;DHT22;19359;51.402;6.778;2023-08-30T05:24:20;13.00;99.90
7784;DHT22;19359;51.402;6.778;2023-08-30T05:26:47;13.20;99.90
7784;DHT22;19359;51.402;6.778;2023-08-30T05:29:15;13.30;99.90
7784;DHT22;19359;51.402;6.778;2023-08-30T05:31:42;13.30;99.90
7784;DHT22;19359;51.402;6.778;2023-08-30T05:34:09;13.40;99.90
7784;DHT22;19359;51.402;6.778;2023-08-30T05:36:36;13.50;99.90
7784;DHT22;19359;51.402;6.778;2023-08-30T05:39:03;13.60;99.90
7784;DHT22;19359;51.402;6.778;2023-08-30T05:41:30;13.60;99.90
7784;DHT22;19359;51.402;6.778;2023-08-30T05:43:57;13.60;99.90
7784;DHT22;19359;51.402;6.778;2023-08-30T05:46:25;13.60;99.90
7784;DHT22;19359;51.402;6.778;2023-08-30T05:48:52;13.70;99.90
7784;DHT22;19359;51.402;6.778;2023-08-30T05:51:20;13.70;99.90
7784;DHT22;19359;51.402;6.778;2023-08-30T05:53:46;13.50;99.90
7784;DHT22;19359;51.402;6.778;2023-08-30T05:56:13;13.90;99.90
7784;DHT22;19359;51.402;6.778;2023-08-30T05:58:40;13.90;99.90
7784;DHT22;19359;51.402;6.778;2023-08-30T06:01:06;14.00;99.90
7784;DHT22;19359;51.402;6.778;2023-08-30T06:03:35;13.90;99.90
7784;DHT22;19359;51.402;6.778;2023-08-30T06:06:01;14.00;99.90
7784;DHT22;19359;51.402;6.778;2023-08-30T06:08:28;14.00;99.90
7784;DHT22;19359;51.402;6.778;2023-08-30T06:10:55;14.10;99.90
7784;DHT22;19359;51.402;6.778;2023-08-30T06:13:22;14.20;99.90
7784;DHT22;19359;51.402;6.778;2023-08-30T06:15:51;14.10;99.90
7784;DHT22;19359;51.402;6.778;2023-08-30T06:18:17;14.20;99.90
7784;DHT22;19359;51.402;6.778;2023-08-30T06:20:46;14.30;99.90
7784;DHT22;19359;51.402;6.778;2023-08-30T06:23:13;14.30;99.90
7784;DHT22;19359;51.402;6.778;2023-08-30T06:25:41;14.50;94.20
7784;DHT22;19359;51.402;6.778;2023-08-30T06:28:07;14.60;99.90
7784;DHT22;19359;51.402;6.778;2023-08-30T06:30:34;14.50;99.90
7784;DHT22;19359;51.402;6.778;2023-08-30T06:33:02;14.40;99.90
7784;DHT22;19359;51.402;6.778;2023-08-30T06:37:57;14.60;99.90
7784;DHT22;19359;51.402;6.778;2023-08-30T06:40:24;14.80;99.90
7784;DHT22;19359;51.402;6.778;2023-08-30T06:42:51;14.80;99.90
7784;DHT22;19359;51.402;6.778;2023-08-30T06:45:18;14.80;99.90
7784;DHT22;19359;51.402;6.778;2023-08-30T06:47:45;15.00;99.90
7784;DHT22;19359;51.402;6.778;2023-08-30T06:50:12;15.10;99.90
7784;DHT22;19359;51.402;6.778;2023-08-30T06:52:38;15.30;99.90
7784;DHT22;19359;51.402;6.778;2023-08-30T06:55:07;15.30;99.90
7784;DHT22;19359;51.402;6.778;2023-08-30T06:57:34;15.20;99.90
7784;DHT22;19359;51.402;6.778;2023-08-30T07:00:01;15.40;99.90
7784;DHT22;19359;51.402;6.778;2023-08-30T07:02:33;15.40;99.90
7784;DHT22;19359;51.402;6.778;2023-08-30T07:05:00;15.40;1.00
7784;DHT22;19359;51.402;6.778;2023-08-30T07:07:30;15.60;1.00
7784;DHT22;19359;51.402;6.778;2023-08-30T07:09:57;15.60;99.90
7784;DHT22;19359;51.402;6.778;2023-08-30T07:12:25;15.80;93.20
7784;DHT22;19359;51.402;6.778;2023-08-30T07:14:52;15.70;99.90
7784;DHT22;19359;51.402;6.778;2023-08-30T07:17:20;15.70;99.90
7784;DHT22;19359;51.402;6.778;2023-08-30T07:19:46;15.80;1.00
7784;DHT22;19359;51.402;6.778;2023-08-30T07:22:13;16.00;1.00
7784;DHT22;19359;51.402;6.778;2023-08-30T07:24:42;16.00;99.90
7784;DHT22;19359;51.402;6.778;2023-08-30T07:27:08;16.30;99.90
7784;DHT22;19359;51.402;6.778;2023-08-30T07:29:36;16.20;62.50
7784;DHT22;19359;51.402;6.778;2023-08-30T07:32:04;16.40;68.30
7784;DHT22;19359;51.402;6.778;2023-08-30T07:34:31;16.40;33.90
7784;DHT22;19359;51.402;6.778;2023-08-30T07:36:57;16.70;7.40
7784;DHT22;19359;51.402;6.778;2023-08-30T07:39:24;16.90;99.90
7784;DHT22;19359;51.402;6.778;2023-08-30T07:41:51;16.90;99.90
7784;DHT22;19359;51.402;6.778;2023-08-30T07:44:18;16.90;83.00
7784;DHT22;19359;51.402;6.778;2023-08-30T07:46:47;17.00;79.20
7784;DHT22;19359;51.402;6.778;2023-08-30T07:49:14;17.00;1.00
7784;DHT22;19359;51.402;6.778;2023-08-30T07:51:40;17.10;1.00
7784;DHT22;19359;51.402;6.778;2023-08-30T07:54:07;17.30;58.00
7784;DHT22;19359;51.402;6.778;2023-08-30T07:56:34;17.50;89.00
7784;DHT22;19359;51.402;6.778;2023-08-30T07:59:01;15.90;1.00
7784;DHT22;19359;51.402;6.778;2023-08-30T08:01:28;17.70;94.70
7784;DHT22;19359;51.402;6.778;2023-08-30T08:03:57;18.00;99.90
7784;DHT22;19359;51.402;6.778;2023-08-30T08:06:23;18.10;99.90
7784;DHT22;19359;51.402;6.778;2023-08-30T08:08:50;18.60;11.50
7784;DHT22;19359;51.402;6.778;2023-08-30T08:11:17;18.20;1.00
7784;DHT22;19359;51.402;6.778;2023-08-30T08:13:43;18.20;1.00
7784;DHT22;19359;51.402;6.778;2023-08-30T08:16:10;18.20;1.00
7784;DHT22;19359;51.402;6.778;2023-08-30T08:18:37;18.30;45.40
7784;DHT22;19359;51.402;6.778;2023-08-30T08:21:05;18.50;7.30
7784;DHT22;19359;51.402;6.778;2023-08-30T08:23:32;18.50;16.10
7784;DHT22;19359;51.402;6.778;2023-08-30T08:25:59;18.70;22.50
7784;DHT22;19359;51.402;6.778;2023-08-30T08:28:26;19.00;3.90
7784;DHT22;19359;51.402;6.778;2023-08-30T08:30:52;18.90;1.00
7784;DHT22;19359;51.402;6.778;2023-08-30T08:33:20;19.00;1.00
7784;DHT22;19359;51.402;6.778;2023-08-30T08:35:48;19.00;1.00
7784;DHT22;19359;51.402;6.778;2023-08-30T08:38:16;19.10;1.00
7784;DHT22;19359;51.402;6.778;2023-08-30T08:40:43;19.30;4.60
7784;DHT22;19359;51.402;6.778;2023-08-30T08:45:38;19.40;1.00
7784;DHT22;19359;51.402;6.778;2023-08-30T08:48:05;19.30;1.00
7784;DHT22;19359;51.402;6.778;2023-08-30T08:50:33;19.60;1.00
7784;DHT22;19359;51.402;6.778;2023-08-30T08:53:02;19.70;1.00
7784;DHT22;19359;51.402;6.778;2023-08-30T08:55:31;19.50;1.00
7784;DHT22;19359;51.402;6.778;2023-08-30T08:58:00;19.70;1.00
7784;DHT22;19359;51.402;6.778;2023-08-30T09:00:30;19.40;1.00
7784;DHT22;19359;51.402;6.778;2023-08-30T09:02:57;19.10;1.00
7784;DHT22;19359;51.402;6.778;2023-08-30T09:05:26;18.90;1.00
7784;DHT22;19359;51.402;6.778;2023-08-30T09:07:54;18.90;1.00
7784;DHT22;19359;51.402;6.778;2023-08-30T09:10:21;18.60;88.60
7784;DHT22;19359;51.402;6.778;2023-08-30T09:12:49;18.60;1.00
7784;DHT22;19359;51.402;6.778;2023-08-30T09:15:16;18.50;1.00
7784;DHT22;19359;51.402;6.778;2023-08-30T09:17:43;18.40;7.70
7784;DHT22;19359;51.402;6.778;2023-08-30T09:20:13;18.60;21.60
7784;DHT22;19359;51.402;6.778;2023-08-30T09:22:40;18.50;60.10
7784;DHT22;19359;51.402;6.778;2023-08-30T09:25:09;18.00;78.30
7784;DHT22;19359;51.402;6.778;2023-08-30T09:27:37;17.70;99.90
7784;DHT22;19359;51.402;6.778;2023-08-30T09:30:09;17.70;95.60
7784;DHT22;19359;51.402;6.778;2023-08-30T09:32:40;17.50;99.90
7784;DHT22;19359;51.402;6.778;2023-08-30T09:35:08;17.20;99.90
7784;DHT22;19359;51.402;6.778;2023-08-30T09:37:35;16.70;91.30
7784;DHT22;19359;51.402;6.778;2023-08-30T09:40:03;16.70;99.90
7784;DHT22;19359;51.402;6.778;2023-08-30T09:42:31;16.70;99.90
7784;DHT22;19359;51.402;6.778;2023-08-30T09:44:58;16.80;99.90
7784;DHT22;19359;51.402;6.778;2023-08-30T09:47:26;16.70;99.90
7784;DHT22;19359;51.402;6.778;2023-08-30T09:49:55;16.90;99.90
7784;DHT22;19359;51.402;6.778;2023-08-30T09:52:24;16.60;99.90
7784;DHT22;19359;51.402;6.778;2023-08-30T09:54:51;16.60;99.90
7784;DHT22;19359;51.402;6.778;2023-08-30T09:57:19;16.60;99.90
7784;DHT22;19359;51.402;6.778;2023-08-30T09:59:48;16.50;99.90
7784;DHT22;19359;51.402;6.778;2023-08-30T10:02:15;16.60;99.90
7784;DHT22;19359;51.402;6.778;2023-08-30T10:04:45;16.40;99.90
7784;DHT22;19359;51.402;6.778;2023-08-30T10:07:13;16.60;99.90
7784;DHT22;19359;51.402;6.778;2023-08-30T10:09:41;16.60;99.90
7784;DHT22;19359;51.402;6.778;2023-08-30T10:12:10;16.70;99.90
7784;DHT22;19359;51.402;6.778;2023-08-30T10:14:37;16.50;99.90
7784;DHT22;19359;51.402;6.778;2023-08-30T10:17:05;16.40;99.90
7784;DHT22;19359;51.402;6.778;2023-08-30T10:19:34;16.10;99.90
7784;DHT22;19359;51.402;6.778;2023-08-30T10:22:06;16.30;99.90
7784;DHT22;19359;51.402;6.778;2023-08-30T10:24:38;16.40;99.90
7784;DHT22;19359;51.402;6.778;2023-08-30T10:27:07;16.40;99.90
7784;DHT22;19359;51.402;6.778;2023-08-30T10:29:37;16.30;99.90
7784;DHT22;19359;51.402;6.778;2023-08-30T10:32:06;16.20;99.90
7784;DHT22;19359;51.402;6.778;2023-08-30T10:34:35;16.00;99.90
7784;DHT22;19359;51.402;6.778;2023-08-30T10:37:03;15.90;99.90
7784;DHT22;19359;51.402;6.778;2023-08-30T10:39:36;16.00;99.90
7784;DHT22;19359;51.402;6.778;2023-08-30T10:42:10;15.90;99.90
7784;DHT22;19359;51.402;6.778;2023-08-30T10:44:47;15.80;99.90
7784;DHT22;19359;51.402;6.778;2023-08-30T10:47:22;15.80;99.90
7784;DHT22;19359;51.402;6.778;2023-08-30T10:49:53;15.50;99.90
7784;DHT22;19359;51.402;6.778;2023-08-30T10:52:20;15.80;99.90
7784;DHT22;19359;51.402;6.778;2023-08-30T10:57:18;15.50;99.90
7784;DHT22;19359;51.402;6.778;2023-08-30T11:00:03;15.50;99.90
7784;DHT22;19359;51.402;6.778;2023-08-30T11:02:30;15.50;99.90
7784;DHT22;19359;51.402;6.778;2023-08-30T11:04:59;15.40;99.90
7784;DHT22;19359;51.402;6.778;2023-08-30T11:07:26;15.50;99.90
7784;DHT22;19359;51.402;6.778;2023-08-30T11:09:54;15.50;99.90
7784;DHT22;19359;51.402;6.778;2023-08-30T11:12:21;15.50;99.90
7784;DHT22;19359;51.402;6.778;2023-08-30T11:14:48;15.60;99.90
7784;DHT22;19359;51.402;6.778;2023-08-30T11:17:16;15.60;99.90
7784;DHT22;19359;51.402;6.778;2023-08-30T11:19:43;15.60;99.90
7784;DHT22;19359;51.402;6.778;2023-08-30T11:22:10;15.60;99.90
7784;DHT22;19359;51.402;6.778;2023-08-30T11:24:39;15.60;99.90
7784;DHT22;19359;51.402;6.778;2023-08-30T11:27:07;15.80;99.90
7784;DHT22;19359;51.402;6.778;2023-08-30T11:29:34;15.70;99.90
7784;DHT22;19359;51.402;6.778;2023-08-30T11:32:01;15.70;99.90
7784;DHT22;19359;51.402;6.778;2023-08-30T11:34:28;15.80;99.90
7784;DHT22;19359;51.402;6.778;2023-08-30T11:36:54;15.70;99.90
7784;DHT22;19359;51.402;6.778;2023-08-30T11:39:21;15.70;99.90
7784;DHT22;19359;51.402;6.778;2023-08-30T11:41:50;15.90;99.90
7784;DHT22;19359;51.402;6.778;2023-08-30T11:44:19;15.90;99.90
7784;DHT22;19359;51.402;6.778;2023-08-30T11:46:46;15.90;99.90
7784;DHT22;19359;51.402;6.778;2023-08-30T11:49:13;15.80;99.90
7784;DHT22;19359;51.402;6.778;2023-08-30T11:51:40;16.20;99.90
7784;DHT22;19359;51.402;6.778;2023-08-30T11:54:07;15.80;99.90
7784;DHT22;19359;51.402;6.778;2023-08-30T11:56:34;16.10;99.90
7784;DHT22;19359;51.402;6.778;2023-08-30T11:59:02;16.20;99.90
7784;DHT22;19359;51.402;6.778;2023-08-30T12:01:32;16.20;99.90
7784;DHT22;19359;51.402;6.778;2023-08-30T12:04:09;16.10;99.90
7784;DHT22;19359;51.402;6.778;2023-08-30T12:06:35;16.10;99.90
7784;DHT22;19359;51.402;6.778;2023-08-30T12:09:02;16.30;99.90
7784;DHT22;19359;51.402;6.778;2023-08-30T12:11:31;16.20;99.90
7784;DHT22;19359;51.402;6.778;2023-08-30T12:14:01;16.50;99.90
7784;DHT22;19359;51.402;6.778;2023-08-30T12:16:28;16.30;99.90
7784;DHT22;19359;51.402;6.778;2023-08-30T12:19:07;16.10;99.90
7784;DHT22;19359;51.402;6.778;2023-08-30T12:21:39;16.30;99.90
7784;DHT22;19359;51.402;6.778;2023-08-30T12:24:06;16.40;99.90
7784;DHT22;19359;51.402;6.778;2023-08-30T12:26:33;16.20;99.90
7784;DHT22;19359;51.402;6.778;2023-08-30T12:29:00;16.20;99.90
7784;DHT22;19359;51.402;6.778;2023-08-30T12:31:27;16.40;99.90
7784;DHT22;19359;51.402;6.778;2023-08-30T12:33:55;16.10;99.90
7784;DHT22;19359;51.402;6.778;2023-08-30T12:36:22;16.20;99.90
7784;DHT22;19359;51.402;6.778;2023-08-30T12:38:49;16.20;99.90
7784;DHT22;19359;51.402;6.778;2023-08-30T12:41:15;16.00;99.90
7784;DHT22;19359;51.402;6.778;2023-08-30T12:43:42;16.00;99.90
7784;DHT22;19359;51.402;6.778;2023-08-30T12:46:09;16.00;99.90
7784;DHT22;19359;51.402;6.778;2023-08-30T12:48:36;15.90;99.90
7784;DHT22;19359;51.402;6.778;2023-08-30T12:51:04;15.90;99.90
7784;DHT22;19359;51.402;6.778;2023-08-30T12:53:30;16.00;99.90
7784;DHT22;19359;51.402;6.778;2023-08-30T12:55:57;16.00;99.90
7784;DHT22;19359;51.402;6.778;2023-08-30T12:58:24;16.00;99.90
7784;DHT22;19359;51.402;6.778;2023-08-30T13:00:51;15.90;99.90
7784;DHT22;19359;51.402;6.778;2023-08-30T13:03:17;15.90;99.90
7784;DHT22;19359;51.402;6.778;2023-08-30T13:05:44;15.90;99.90
7784;DHT22;19359;51.402;6.778;2023-08-30T13:08:12;15.80;99.90
7784;DHT22;19359;51.402;6.778;2023-08-30T13:10:39;16.00;99.90
7784;DHT22;19359;51.402;6.778;2023-08-30T13:15:33;15.90;99.90
7784;DHT22;19359;51.402;6.778;2023-08-30T13:18:00;15.90;99.90
7784;DHT22;19359;51.402;6.778;2023-08-30T13:20:27;15.90;99.90
7784;DHT22;19359;51.402;6.778;2023-08-30T13:22:54;16.00;99.90
7784;DHT22;19359;51.402;6.778;2023-08-30T13:25:22;16.10;99.90
7784;DHT22;19359;51.402;6.778;2023-08-30T13:27:49;16.00;99.90
7784;DHT22;19359;51.402;6.778;2023-08-30T13:30:16;15.90;99.90
7784;DHT22;19359;51.402;6.778;2023-08-30T13:35:10;16.20;99.90
7784;DHT22;19359;51.402;6.778;2023-08-30T13:37:37;16.10;99.90
7784;DHT22;19359;51.402;6.778;2023-08-30T13:42:32;16.50;99.90
7784;DHT22;19359;51.402;6.778;2023-08-30T13:44:59;16.20;99.90
7784;DHT22;19359;51.402;6.778;2023-08-30T13:47:26;16.10;99.90
7784;DHT22;19359;51.402;6.778;2023-08-30T13:49:53;16.30;99.90
7784;DHT22;19359;51.402;6.778;2023-08-30T13:52:19;16.20;99.90
7784;DHT22;19359;51.402;6.778;2023-08-30T13:57:15;16.10;99.90
7784;DHT22;19359;51.402;6.778;2023-08-30T13:59:43;16.40;99.90
7784;DHT22;19359;51.402;6.778;2023-08-30T14:02:10;15.90;99.90
7784;DHT22;19359;51.402;6.778;2023-08-30T14:04:37;16.00;99.90
7784;DHT22;19359;51.402;6.778;2023-08-30T14:09:31;15.60;99.90
7784;DHT22;19359;51.402;6.778;2023-08-30T14:11:58;15.60;99.90
7784;DHT22;19359;51.402;6.778;2023-08-30T14:14:24;15.60;99.90
7784;DHT22;19359;51.402;6.778;2023-08-30T14:16:53;15.70;99.90
7784;DHT22;19359;51.402;6.778;2023-08-30T14:19:19;15.70;99.90
7784;DHT22;19359;51.402;6.778;2023-08-30T14:21:46;15.80;99.90
7784;DHT22;19359;51.402;6.778;2023-08-30T14:24:13;15.90;99.90
7784;DHT22;19359;51.402;6.778;2023-08-30T14:26:40;15.90;99.90
7784;DHT22;19359;51.402;6.778;2023-08-30T14:29:06;15.80;99.90
7784;DHT22;19359;51.402;6.778;2023-08-30T14:31:33;16.00;99.90
7784;DHT22;19359;51.402;6.778;2023-08-30T14:34:01;16.10;99.90
7784;DHT22;19359;51.402;6.778;2023-08-30T14:36:28;16.10;99.90
7784;DHT22;19359;51.402;6.778;2023-08-30T14:38:55;16.10;99.90
7784;DHT22;19359;51.402;6.778;2023-08-30T14:41:22;15.90;99.90
7784;DHT22;19359;51.402;6.778;2023-08-30T14:43:48;15.60;99.90
7784;DHT22;19359;51.402;6.778;2023-08-30T14:46:15;15.80;99.90
7784;DHT22;19359;51.402;6.778;2023-08-30T14:48:45;15.70;99.90
7784;DHT22;19359;51.402;6.778;2023-08-30T14:53:40;15.00;99.90
7784;DHT22;19359;51.402;6.778;2023-08-30T14:58:35;15.70;99.90
7784;DHT22;19359;51.402;6.778;2023-08-30T15:03:29;15.70;99.90
7784;DHT22;19359;51.402;6.778;2023-08-30T15:05:56;15.70;99.90
7784;DHT22;19359;51.402;6.778;2023-08-30T15:08:25;15.70;99.90
7784;DHT22;19359;51.402;6.778;2023-08-30T15:10:51;15.50;99.90
7784;DHT22;19359;51.402;6.778;2023-08-30T15:13:20;15.70;99.90
7784;DHT22;19359;51.402;6.778;2023-08-30T15:15:46;15.80;1.00
7784;DHT22;19359;51.402;6.778;2023-08-30T15:18:13;15.80;99.90
7784;DHT22;19359;51.402;6.778;2023-08-30T15:20:40;15.80;1.00
7784;DHT22;19359;51.402;6.778;2023-08-30T15:23:07;15.90;1.00
7784;DHT22;19359;51.402;6.778;2023-08-30T15:25:39;16.20;1.00
7784;DHT22;19359;51.402;6.778;2023-08-30T15:28:05;16.40;99.90
7784;DHT22;19359;51.402;6.778;2023-08-30T15:30:32;16.60;99.90
7784;DHT22;19359;51.402;6.778;2023-08-30T15:32:59;17.60;1.00
7784;DHT22;19359;51.402;6.778;2023-08-30T15:35:26;18.50;1.00
7784;DHT22;19359;51.402;6.778;2023-08-30T15:37:52;19.60;18.50
7784;DHT22;19359;51.402;6.778;2023-08-30T15:40:19;20.10;99.90
7784;DHT22;19359;51.402;6.778;2023-08-30T15:42:47;21.20;1.00
7784;DHT22;19359;51.402;6.778;2023-08-30T15:45:14;21.30;99.90
7784;DHT22;19359;51.402;6.778;2023-08-30T15:47:41;20.40;1.00
7784;DHT22;19359;51.402;6.778;2023-08-30T15:50:08;19.90;99.90
7784;DHT22;19359;51.402;6.778;2023-08-30T15:52:35;19.80;99.90
7784;DHT22;19359;51.402;6.778;2023-08-30T15:55:01;20.90;86.60
7784;DHT22;19359;51.402;6.778;2023-08-30T15:57:28;21.20;1.00
7784;DHT22;19359;51.402;6.778;2023-08-30T15:59:56;21.30;1.00
7784;DHT22;19359;51.402;6.778;2023-08-30T16:02:23;21.60;1.00
7784;DHT22;19359;51.402;6.778;2023-08-30T16:04:50;21.60;99.90
7784;DHT22;19359;51.402;6.778;2023-08-30T16:07:17;21.70;1.00
7784;DHT22;19359;51.402;6.778;2023-08-30T16:09:43;21.90;1.00
7784;DHT22;19359;51.402;6.778;2023-08-30T16:12:13;21.70;1.00
7784;DHT22;19359;51.402;6.778;2023-08-30T16:14:40;20.80;1.00
7784;DHT22;19359;51.402;6.778;2023-08-30T16:17:08;20.00;1.00
7784;DHT22;19359;51.402;6.778;2023-08-30T16:19:35;19.40;1.00
7784;DHT22;19359;51.402;6.778;2023-08-30T16:22:02;19.60;1.00
7784;DHT22;19359;51.402;6.778;2023-08-30T16:24:29;19.30;1.00
7784;DHT22;19359;51.402;6.778;2023-08-30T16:26:57;18.90;1.00
7784;DHT22;19359;51.402;6.778;2023-08-30T16:29:26;18.50;1.00
7784;DHT22;19359;51.402;6.778;2023-08-30T16:31:52;18.20;1.00
7784;DHT22;19359;51.402;6.778;2023-08-30T16:34:21;17.80;1.00
7784;DHT22;19359;51.402;6.778;2023-08-30T16:36:48;17.70;1.00